• Join FlightAware (Why Join?)
  • Login
  • US Flag 
03:07AM EDT


 

Airport Tracker/Info


-or-


 

Live Flight TrackerFlight Track Log ✈ UPS1083 ✈ 25-Nov-2013 ✈ KEWR - KSDF

Flight Track Log - Related Links

Times and Time Zones

All times are in EST time to prevent confusion due to time zone crossing. See the UPS1083 flight status page for this flight to view local times or setup timezone preferences in your user account.

Time Position Orientation Groundspeed Altitude Reporting Facility
EST Latitude Longitude Course Direction KTS MPH feet Rate Location/Type
10:43PM 40.6938 -74.1678 201° Southwest 120 138  Level FlightAware ADS-B
10:44PM 40.6779 -74.1779 206° Southwest 135 155 500 1,740 Climbing FlightAware ADS-B
10:44PM 40.6731 -74.1807 204° Southwest 167 192 900 2,760 Climbing FlightAware ADS-B
10:44PM 40.6666 -74.1827 193° South 187 215 1,200 1,800 Climbing FlightAware ADS-B
10:44PM 40.6620 -74.1832 185° South 195 224 1,300 1,200 Climbing FlightAware ADS-B
10:44PM 40.6575 -74.1832 180° South 209 241 1,400 1,680 Climbing FlightAware ADS-B
10:44PM 40.6480 -74.1829 179° South 224 258 1,700 2,280 Climbing FlightAware ADS-B
10:44PM 40.6440 -74.1834 185° South 228 262 1,900 3,300 Climbing FlightAware ADS-B
10:44PM 40.6393 -74.1847 192° South 227 261 2,200 3,960 Climbing FlightAware ADS-B
10:45PM 40.6193 -74.2184 232° Southwest 226 260 4,500 3,960 Climbing FlightAware ADS-B
10:45PM 40.6193 -74.2300 270° West 230 265 5,000 3,840 Climbing FlightAware ADS-B
10:45PM 40.6201 -74.2542 273° West 243 280 6,100 4,320 Climbing FlightAware ADS-B
10:46PM 40.6212 -74.2831 273° West 243 280 7,600 4,560 Climbing FlightAware ADS-B
10:46PM 40.6212 -74.3193 270° West 247 284 9,400 3,000 Climbing FlightAware ADS-B
10:48PM 40.5652 -74.5585 253° West 386 444 15,300 2,580 Climbing FlightAware ADS-B (KWWD)
10:49PM 40.5465 -74.6362 252° West 402 463 16,600 1,140 Climbing FlightAware ADS-B (KWWD)
10:49PM 40.5263 -74.7125 251° West 400 460 16,600 720 Level FlightAware ADS-B (KWWD)
10:50PM 40.5090 -74.7819 252° West 401 461 17,400 2,880 Climbing FlightAware ADS-B (KWWD)
10:50PM 40.4894 -74.8502 249° West 395 455 19,500 3,360 Climbing FlightAware ADS-B (KWWD)
10:51PM 40.4594 -74.9343 245° Southwest 413 475 21,200 2,700 Climbing FlightAware ADS-B (KWWD)
10:52PM 40.4248 -75.0311 245° Southwest 429 494 23,100 2,820 Climbing FlightAware ADS-B (KWWD)
10:52PM 40.4000 -75.1046 246° West 429 494 24,700 3,600 Climbing FlightAware ADS-B (KWWD)
10:53PM 40.3675 -75.1970 245° Southwest 417 480 27,300 4,320 Climbing FlightAware ADS-B (KWWD)
10:53PM 40.3437 -75.2651 245° Southwest 393 452 29,800 3,780 Climbing FlightAware ADS-B (KWWD)
10:54PM 40.3210 -75.3275 245° Southwest 390 449 31,200 1,920 Climbing FlightAware ADS-B (KWWD)
10:55PM 40.2921 -75.4097 245° Southwest 385 443 32,000 660 Climbing FlightAware ADS-B (KWWD)
10:55PM 40.2744 -75.4744 250° West 378 435 32,000 360 Level FlightAware ADS-B (KWWD)
10:56PM 40.2570 -75.5396 251° West 379 436 32,400 1,620 Climbing FlightAware ADS-B (KWWD)
10:56PM 40.2386 -75.6066 250° West 368 423 33,700 2,340 Climbing FlightAware ADS-B (KWWD)
10:57PM 40.2161 -75.6889 250° West 356 410 35,200 1,980 Climbing FlightAware ADS-B (KWWD)
10:57PM 40.1997 -75.7492 250° West 355 409 36,000 720 Climbing FlightAware ADS-B (KWWD)
10:58PM 40.1829 -75.8107 250° West 351 404 36,000  Level FlightAware ADS-B (KILG)
10:58PM 40.1708 -75.8549 250° West 352 405 36,000  Level FlightAware ADS-B (KAPG)
10:58PM 40.1677 -75.8660 250° West 352 405 36,000  Level FlightAware ADS-B (KAPG)
10:59PM 40.1594 -75.8959 250° West 353 406 36,000  Level FlightAware ADS-B (KILG)
10:59PM 40.1565 -75.9064 250° West 353 406 36,000  Level FlightAware ADS-B (KAPG)
10:59PM 40.1431 -75.9551 250° West 354 407 36,000  Level FlightAware ADS-B (KAPG)
10:59PM 40.1343 -75.9870 250° West 353 406 36,000  Level FlightAware ADS-B (KAPG)
11:00PM 40.1343 -75.9870 250° West 352 405 36,000  Level FlightAware ADS-B (KAPG)
11:00PM 40.1202 -76.0382 250° West 352 405 36,000  Level FlightAware ADS-B (KAPG)
11:00PM 40.0996 -76.1123 250° West 348 400 36,000  Level FlightAware ADS-B (KWWD)
11:01PM 40.0773 -76.1925 250° West 349 402 36,000  Level FlightAware ADS-B (KWWD)
11:01PM 40.0678 -76.2266 250° West 353 406 36,000  Level FlightAware ADS-B (KAPG)
11:02PM 40.0576 -76.2631 250° West 354 407 36,000  Level FlightAware ADS-B (KAPG)
11:02PM 40.0462 -76.3042 250° West 353 406 36,000  Level FlightAware ADS-B (KAPG)
11:02PM 40.0365 -76.3392 250° West 352 405 36,000  Level FlightAware ADS-B (KAPG)
11:02PM 40.0297 -76.3633 250° West 353 406 36,000  Level FlightAware ADS-B (KAPG)
11:03PM 40.0226 -76.3885 250° West 353 406 36,000  Level FlightAware ADS-B (KAPG)
11:03PM 40.0167 -76.4093 250° West 351 404 36,000  Level FlightAware ADS-B (KWWD)
11:03PM 40.0108 -76.4303 250° West 352 405 36,000  Level FlightAware ADS-B (KWWD)
11:03PM 40.0047 -76.4522 250° West 352 405 36,000  Level FlightAware ADS-B (KWWD)
11:03PM 39.9965 -76.4814 250° West 355 409 36,000  Level FlightAware ADS-B (KAPG)
11:04PM 39.9862 -76.5178 250° West 352 405 36,000  Level FlightAware ADS-B (KWWD)
11:04PM 39.9695 -76.5771 250° West 355 409 36,000  Level FlightAware ADS-B (KAPG)
11:05PM 39.9485 -76.6513 250° West 351 404 36,000  Level FlightAware ADS-B (KWWD)
11:05PM 39.9315 -76.7112 250° West 350 403 36,000  Level FlightAware ADS-B (KWWD)
11:06PM 39.9247 -76.7350 250° West 352 405 36,000  Level FlightAware ADS-B (KAPG)
11:06PM 39.9035 -76.8095 250° West 348 400 36,000  Level FlightAware ADS-B (KWWD)
11:07PM 39.8889 -76.8605 250° West 351 404 36,000  Level FlightAware ADS-B (KAPG)
11:07PM 39.8799 -76.8923 250° West 350 403 36,000  Level FlightAware ADS-B (KAPG)
11:07PM 39.8718 -76.9206 250° West 347 399 36,000  Level FlightAware ADS-B (KWWD)
11:08PM 39.8562 -76.9747 249° West 350 403 36,000  Level FlightAware ADS-B (KAPG)
11:08PM 39.8371 -77.0411 250° West 349 402 36,000  Level FlightAware ADS-B (KAPG)
11:09PM 39.8152 -77.1171 249° West 347 399 36,000  Level FlightAware ADS-B (KWWD)
11:09PM 39.7915 -77.1992 249° West 349 402 36,000  Level FlightAware ADS-B (KAPG)
11:10PM 39.7855 -77.2199 249° West 347 399 36,000  Level FlightAware ADS-B (KWWD)
11:10PM 39.7680 -77.2802 249° West 350 403 36,000  Level FlightAware ADS-B (KAPG)
11:11PM 39.7463 -77.3549 249° West 352 405 36,000  Level FlightAware ADS-B (KAPG)
11:11PM 39.7220 -77.4379 249° West 354 407 36,000 60 Level FlightAware ADS-B (KAPG)
11:12PM 39.6976 -77.5218 249° West 355 409 36,100 60 Climbing FlightAware ADS-B (KAPG)
11:13PM 39.6767 -77.5929 249° West 354 407 36,100 -120 Level FlightAware ADS-B (KAPG)
11:13PM 39.6573 -77.6587 249° West 351 404 36,000 -120 Descending FlightAware ADS-B (KWWD)
11:14PM 39.6365 -77.7292 249° West 351 404 36,000  Level FlightAware ADS-B (KWWD)
11:16PM 39.5606 -77.9848 249° West 350 403 36,000  Level FlightAware ADS-B (KAPG)
11:17PM 39.5358 -78.0678 249° West 346 398 36,000  Level FlightAware ADS-B (KWWD)
11:17PM 39.5144 -78.1392 249° West 347 399 36,000  Level FlightAware ADS-B (KWWD)
11:18PM 39.4885 -78.2252 249° West 352 405 36,000  Level FlightAware ADS-B (KWWD)
11:21PM 39.3926 -78.5420 249° West 357 411 36,100  Climbing FlightAware ADS-B (KWWD)
11:22PM 39.3503 -78.6807 249° West 357 411 36,000 -120 Descending FlightAware ADS-B (KWWD)
11:22PM 39.3314 -78.7426 248° West 358 412 36,000  Level FlightAware ADS-B (KWWD)
11:23PM 39.3103 -78.8115 248° West 358 412 36,000  Level FlightAware ADS-B (KWWD)
11:27PM 39.1622 -79.2886 248° West 358 412 36,000  Level FlightAware ADS-B (KWWD)
11:28PM 39.1307 -79.3889 248° West 358 412 36,000  Level FlightAware ADS-B (KWWD)
11:28PM 39.1095 -79.4564 248° West 358 412 36,000  Level FlightAware ADS-B (KWWD)
11:29PM 39.0786 -79.5545 248° West 359 413 36,000  Level FlightAware ADS-B (KWWD)
11:30PM 39.0467 -79.6622 248° West 368 423 36,000  Level Washington Center
11:31PM 39.0139 -79.7700 249° West 368 423 36,000  Level Washington Center
11:32PM 38.9739 -79.9011 249° West 368 423 36,000  Level Washington Center
11:33PM 38.9361 -80.0164 247° West 368 423 36,000  Level Washington Center
11:35PM 38.8853 -80.1589 245° Southwest 358 412 36,000  Level Indianapolis Center
11:36PM 38.8494 -80.2769 249° West 357 411 36,000  Level Indianapolis Center
11:37PM 38.8172 -80.3978 251° West 357 411 36,000  Level Indianapolis Center
11:38PM 38.7764 -80.5431 250° West 359 413 36,000  Level Indianapolis Center
11:39PM 38.7411 -80.6631 249° West 360 414 36,000  Level Indianapolis Center
11:40PM 38.7064 -80.7836 250° West 359 413 36,000  Level Indianapolis Center
11:41PM 38.6711 -80.9033 249° West 360 414 36,000  Level Indianapolis Center
11:42PM 38.6361 -81.0236 250° West 359 413 36,000  Level Indianapolis Center
11:43PM 38.6011 -81.1433 250° West 357 411 36,000  Level Indianapolis Center
11:44PM 38.5800 -81.2658 258° West 358 412 36,000 -420 Level Indianapolis Center
11:45PM 38.5719 -81.3931 265° West 355 409 35,200 -900 Descending Indianapolis Center
11:46PM 38.5653 -81.5253 266° West 362 417 34,200 -1,020 Descending Indianapolis Center
11:47PM 38.5375 -81.6533 255° West 367 422 33,200 -960 Descending Indianapolis Center
11:48PM 38.5078 -81.7800 253° West 368 423 32,300 -960 Descending Indianapolis Center
11:49PM 38.4781 -81.9078 253° West 372 428 31,300 -660 Descending Indianapolis Center
11:50PM 38.4444 -82.0317 251° West 370 426 31,000 -180 Descending Indianapolis Center
11:51PM 38.4036 -82.1517 247° West 369 425 31,000  Level Indianapolis Center
11:52PM 38.3622 -82.2703 246° West 366 421 31,000  Level Indianapolis Center
11:53PM 38.3200 -82.3900 246° West 368 423 31,000  Level Indianapolis Center
11:59PM 38.0503 -83.1606 246° West 372 428 31,000  Level FlightAware ADS-B
12:00AM 38.0272 -83.2253 246° West 371 427 31,000  Level FlightAware ADS-B
12:00AM 38.0211 -83.2408 244° Southwest 370 426 31,000 -420 Level Indianapolis Center
12:00AM 38.0052 -83.2874 246° West 361 415 30,800 -960 Descending FlightAware ADS-B
12:01AM 37.9846 -83.3464 246° West 337 388 30,300 -660 Descending FlightAware ADS-B
12:01AM 37.9806 -83.3564 246° West 361 415 30,300 -780 Level Indianapolis Center
12:01AM 37.9647 -83.4004 245° Southwest 318 366 29,900 -1,020 Descending FlightAware ADS-B
12:02AM 37.9392 -83.4706 245° Southwest 308 354 29,300 -840 Descending Indianapolis Center
12:02AM 37.9356 -83.4797 245° Southwest 295 339 29,200 -840 Descending FlightAware ADS-B
12:03AM 37.9145 -83.5396 246° West 294 338 28,700 -900 Descending FlightAware ADS-B
12:03AM 37.9056 -83.5642 246° West 296 341 28,400 -1,080 Descending Indianapolis Center
12:03AM 37.8920 -83.6013 245° Southwest 294 338 28,000 -1,080 Descending FlightAware ADS-B
12:04AM 37.8718 -83.6563 245° Southwest 292 336 27,400 -900 Descending FlightAware ADS-B
12:04AM 37.8706 -83.6572 245° Southwest 294 338 27,400 -1,020 Level Indianapolis Center
12:05AM 37.8383 -83.7489 246° West 288 331 26,300 -1,140 Descending Indianapolis Center
12:06AM 37.8056 -83.8394 245° Southwest 284 327 25,200 -1,140 Descending Indianapolis Center
12:07AM 37.7652 -83.9326 244° Southwest  Level FlightAware Approximate
12:07AM 37.7350 -83.8958 212° Southwest 303 349 24,100  Level Indianapolis Center
12:08AM 37.6625 -83.9472 209° Southwest 300 345 23,000 -1,140 Descending Indianapolis Center
12:09AM 37.5919 -83.9950 208° Southwest 292 336 21,900 -1,140 Descending Indianapolis Center
12:10AM 37.5225 -84.0414 208° Southwest 283 326 20,800 -1,260 Descending Indianapolis Center
12:11AM 37.4589 -84.0978 215° Southwest 282 325 19,400 -1,380 Descending Indianapolis Center
12:12AM 37.4714 -84.1947 279° West 286 329 18,100 -1,080 Descending Indianapolis Center
12:13AM 37.4931 -84.2914 286° West 284 327 17,300 -1,020 Descending Indianapolis Center
12:14AM 37.5172 -84.3850 288° West 282 325 16,100 -1,260 Descending Indianapolis Center
12:15AM 37.5431 -84.4922 287° West 275 316 14,800 -1,200 Descending Indianapolis Center
12:16AM 37.5642 -84.5806 287° West 266 306 13,700 -1,080 Descending Indianapolis Center
12:17AM 37.5864 -84.6736 287° West 274 315 12,700 -1,020 Descending Indianapolis Center
12:18AM 37.6089 -84.7669 287° West 279 321 11,700 -900 Descending Indianapolis Center
12:19AM 37.6314 -84.8606 287° West 278 320 11,000 -300 Descending Indianapolis Center
12:20AM 37.6539 -84.9511 287° West 272 313 11,100 -240 Climbing Indianapolis Center
12:21AM 37.7056 -85.0219 313° West 277 319 10,600 -480 Descending Indianapolis Center
12:22AM 37.7553 -85.0942 311° West 270 311 10,200 -600 Descending Indianapolis Center
12:23AM 37.8053 -85.1636 312° West 268 308 9,400 -840 Descending Indianapolis Center
12:24AM 37.8572 -85.2333 313° West 266 306 8,600 -780 Descending Indianapolis Center
12:25AM 37.9058 -85.3036 311° West 265 305 7,900 -660 Descending Indianapolis Center
12:26AM 37.9519 -85.3639 314° West 244 281 7,300 -840 Descending Indianapolis Center
12:27AM 37.9936 -85.4219 312° West 226 260 6,300 -660 Descending Indianapolis Center
12:28AM 38.0319 -85.4772 311° West 212 244 6,000 -180 Descending Indianapolis Center
12:29AM 38.0686 -85.5292 312° West 201 231 6,000  Level Indianapolis Center
12:30AM 38.1056 -85.5778 314° West 197 227 6,000  Level Indianapolis Center
12:32AM 38.1500 -85.5997 339° North 185 213 6,000 -180 Level Indianapolis Center
12:33AM 38.1967 -85.6236 338° Northwest 179 206 5,700 -420 Descending Indianapolis Center
12:34AM 38.2450 -85.6397 345° North 178 205 5,200 -360 Descending Indianapolis Center
12:35AM 38.2908 -85.6553 345° North 175 201 5,000 -120 Descending Indianapolis Center
12:36AM 38.3378 -85.6731 343° North 174 200 5,000  Level Indianapolis Center
12:37AM 38.3847 -85.6886 345° North 174 200 5,000  Level Indianapolis Center
12:38AM 38.4311 -85.7061 344° North 174 200 5,000  Level Indianapolis Center
12:39AM 38.4786 -85.7242 343° North 176 203 5,000  Level Indianapolis Center
12:40AM 38.5258 -85.7408 345° North 176 203 5,000 -240 Level Indianapolis Center
12:41AM 38.5447 -85.7939 294° West 167 192 4,600 -480 Descending Indianapolis Center
12:42AM 38.5197 -85.8336 231° Southwest 167 192 4,100 -300 Descending Indianapolis Center
12:43AM 38.4733 -85.8311 178° South 170 196 4,000 -60 Descending Indianapolis Center
12:44AM 38.4247 -85.8128 164° South 175 201 4,000  Level Indianapolis Center
12:45AM 38.3789 -85.7969 165° South 174 200 4,000 -120 Level Indianapolis Center
12:46AM 38.3325 -85.7814 165° South 173 199 3,800 -600 Descending Indianapolis Center
12:47AM 38.2869 -85.7658 165° South 171 197 2,800 -960 Descending Indianapolis Center
12:49AM 38.2167 -85.7333 160° South 143 165 1,100 -900 Descending Louisville TRACON